Time;durP1;ratioP1;P1;durP2;ratioP2;P2;SDS_P1;SDS_P2;PMS_P1;PMS_P2;Temp;Humidity;BMP_temperature;BMP_pressure;BME280_temperature;BME280_humidity;BME280_pressure;Samples;Min_cycle;Max_cycle;Signal;HPM_P1;HPM_P2
2023/07/26 00:01:45;;;;;;;3.93;1.70;;;16.00;99.90;;;;;;5075807;28;20563;-67
2023/07/26 00:04:11;;;;;;;2.97;1.40;;;15.90;99.90;;;;;;5068673;28;20171;-66
2023/07/26 00:06:37;;;;;;;4.93;1.73;;;15.90;99.90;;;;;;5074012;28;20171;-66
2023/07/26 00:09:03;;;;;;;4.60;1.60;;;15.90;99.90;;;;;;5080006;28;20254;-66
2023/07/26 00:11:29;;;;;;;3.23;1.30;;;15.90;99.90;;;;;;5072609;28;20171;-66
2023/07/26 00:13:55;;;;;;;3.37;2.37;;;15.80;99.90;;;;;;5077440;28;20479;-66
2023/07/26 00:16:20;;;;;;;3.07;1.50;;;15.70;99.90;;;;;;5070969;28;20420;-67
2023/07/26 00:18:46;;;;;;;4.00;1.97;;;15.70;99.90;;;;;;5062847;28;20235;-67
2023/07/26 00:21:12;;;;;;;4.20;1.63;;;15.60;99.90;;;;;;5067469;28;20333;-66
2023/07/26 00:23:37;;;;;;;1.33;1.23;;;15.50;99.90;;;;;;5063105;28;20180;-67
2023/07/26 00:26:03;;;;;;;7.83;3.13;;;15.50;99.90;;;;;;5047251;28;20175;-67
2023/07/26 00:28:29;;;;;;;3.93;2.00;;;15.40;99.90;;;;;;5071610;28;20576;-67
2023/07/26 00:30:55;;;;;;;3.33;1.93;;;15.30;99.90;;;;;;5069506;28;20217;-66
2023/07/26 00:33:20;;;;;;;1.80;1.70;;;15.20;99.90;;;;;;5074410;28;20417;-66
2023/07/26 00:35:46;;;;;;;7.10;1.70;;;15.20;99.90;;;;;;5073266;28;20174;-66
2023/07/26 00:38:11;;;;;;;1.33;1.23;;;15.20;99.90;;;;;;5075726;28;20664;-66
2023/07/26 00:40:37;;;;;;;2.00;1.60;;;15.10;99.90;;;;;;5071166;28;20191;-66
2023/07/26 00:43:05;;;;;;;2.20;1.50;;;15.00;99.90;;;;;;5076241;28;20218;-66
2023/07/26 00:45:33;;;;;;;6.30;2.03;;;15.00;99.90;;;;;;5061870;28;20446;-66
2023/07/26 00:47:59;;;;;;;1.67;1.50;;;14.90;99.90;;;;;;5074130;28;20444;-65
2023/07/26 00:50:25;;;;;;;2.03;1.50;;;14.80;99.90;;;;;;5066726;28;20507;-66
2023/07/26 00:52:51;;;;;;;2.77;1.90;;;14.80;99.90;;;;;;5060522;28;20425;-66
2023/07/26 00:55:17;;;;;;;2.40;1.53;;;14.80;99.90;;;;;;5079808;28;20424;-66
2023/07/26 00:57:43;;;;;;;1.43;1.30;;;14.70;99.90;;;;;;5070953;28;20412;-66
2023/07/26 01:00:10;;;;;;;3.43;1.60;;;14.60;99.90;;;;;;5062548;28;20209;-66
2023/07/26 01:02:36;;;;;;;4.90;1.73;;;14.60;99.90;;;;;;5073831;28;20448;-66
2023/07/26 01:05:03;;;;;;;5.90;2.00;;;14.50;99.90;;;;;;5080769;28;20411;-66
2023/07/26 01:07:38;;;;;;;2.43;1.70;;;14.50;99.90;;;;;;5064737;28;20174;-66
2023/07/26 01:10:27;;;;;;;2.03;1.50;;;14.40;99.90;;;;;;5070842;28;20427;-66
2023/07/26 01:13:18;;;;;;;5.03;1.90;;;14.40;99.90;;;;;;5068271;28;20404;-66
2023/07/26 01:15:46;;;;;;;3.33;1.87;;;14.30;99.90;;;;;;5075237;28;20416;-67
2023/07/26 01:18:14;;;;;;;2.53;1.60;;;14.20;99.90;;;;;;5082320;28;20419;-66
2023/07/26 01:20:40;;;;;;;2.53;1.90;;;14.20;99.90;;;;;;5062209;28;20449;-66
2023/07/26 01:23:06;;;;;;;3.33;2.00;;;14.20;99.90;;;;;;5064997;28;20455;-66
2023/07/26 01:25:32;;;;;;;5.97;1.87;;;14.10;99.90;;;;;;5062206;28;20414;-66
2023/07/26 01:27:58;;;;;;;1.97;1.63;;;14.00;99.90;;;;;;5078006;28;20445;-66
2023/07/26 01:30:29;;;;;;;4.93;1.83;;;14.10;99.90;;;;;;5063994;28;20429;-67
2023/07/26 01:32:56;;;;;;;8.00;1.80;;;14.00;99.90;;;;;;5061640;28;20590;-65
2023/07/26 01:35:22;;;;;;;4.87;1.70;;;14.00;99.90;;;;;;5060148;28;20838;-66
2023/07/26 01:37:48;;;;;;;4.40;1.70;;;13.90;99.90;;;;;;5074156;28;20928;-66
2023/07/26 01:40:14;;;;;;;4.77;2.20;;;13.80;99.90;;;;;;5048606;28;20437;-66
2023/07/26 01:42:41;;;;;;;2.10;1.50;;;13.80;99.90;;;;;;5074616;28;20578;-66
2023/07/26 01:45:09;;;;;;;2.97;1.97;;;13.80;99.90;;;;;;5077620;28;20174;-66
2023/07/26 01:47:35;;;;;;;4.60;1.70;;;13.70;99.90;;;;;;5060066;28;20417;-66
2023/07/26 01:50:00;;;;;;;3.27;1.50;;;13.70;99.90;;;;;;5078127;28;21158;-65
2023/07/26 01:52:26;;;;;;;2.50;1.80;;;13.60;99.90;;;;;;5072044;28;20937;-65
2023/07/26 01:54:52;;;;;;;2.83;2.03;;;13.60;99.90;;;;;;5064155;28;20269;-66
2023/07/26 01:57:17;;;;;;;4.20;1.70;;;13.50;99.90;;;;;;5076577;28;20249;-66
2023/07/26 01:59:43;;;;;;;3.57;2.27;;;13.60;99.90;;;;;;5075495;28;20205;-66
2023/07/26 02:02:09;;;;;;;1.80;1.30;;;13.60;99.90;;;;;;5045240;28;20186;-65
2023/07/26 02:04:34;;;;;;;3.40;2.10;;;13.50;99.90;;;;;;5070559;28;20183;-66
2023/07/26 02:07:00;;;;;;;10.10;3.53;;;13.50;99.90;;;;;;5082203;28;20641;-65
2023/07/26 02:09:25;;;;;;;3.73;2.03;;;13.50;99.90;;;;;;5068619;28;20551;-66
2023/07/26 02:11:51;;;;;;;3.30;1.37;;;13.50;99.90;;;;;;5076670;28;20170;-66
2023/07/26 02:14:16;;;;;;;3.53;1.93;;;13.40;99.90;;;;;;5069225;28;20166;-66
2023/07/26 02:16:42;;;;;;;2.43;2.20;;;13.40;99.90;;;;;;5074239;28;20240;-65
2023/07/26 02:19:08;;;;;;;3.17;1.93;;;13.40;99.90;;;;;;5081083;28;20173;-65
2023/07/26 02:21:33;;;;;;;5.83;2.63;;;13.30;99.90;;;;;;5062043;28;20202;-65
2023/07/26 02:23:59;;;;;;;4.23;2.20;;;13.40;99.90;;;;;;5075902;28;20174;-66
2023/07/26 02:26:24;;;;;;;6.33;2.00;;;13.30;99.90;;;;;;5070896;28;20261;-66
2023/07/26 02:28:50;;;;;;;5.57;2.30;;;13.20;99.90;;;;;;5068946;28;20166;-65
2023/07/26 02:31:17;;;;;;;2.70;2.00;;;13.20;99.90;;;;;;5073868;28;20227;-65
2023/07/26 02:33:42;;;;;;;6.17;2.10;;;13.30;99.90;;;;;;5077488;28;20175;-66
2023/07/26 02:36:08;;;;;;;3.53;2.30;;;13.30;99.90;;;;;;5059033;28;20780;-66
2023/07/26 02:38:33;;;;;;;3.30;1.53;;;13.30;99.90;;;;;;5077710;28;20166;-67
2023/07/26 02:40:59;;;;;;;3.63;2.10;;;13.30;99.90;;;;;;5057433;28;20194;-66
2023/07/26 02:43:25;;;;;;;5.20;2.23;;;13.20;99.90;;;;;;5076452;28;20201;-65
2023/07/26 02:45:50;;;;;;;4.07;2.00;;;13.20;99.90;;;;;;5057494;28;20548;-65
2023/07/26 02:48:16;;;;;;;3.23;1.80;;;13.20;99.90;;;;;;5077784;28;20228;-65
2023/07/26 02:50:42;;;;;;;5.63;2.20;;;13.20;99.90;;;;;;5081052;28;20239;-66
2023/07/26 02:53:07;;;;;;;2.50;1.73;;;13.10;99.90;;;;;;5056217;28;20174;-66
2023/07/26 02:55:33;;;;;;;4.80;1.80;;;13.10;99.90;;;;;;5073474;28;20429;-66
2023/07/26 02:57:59;;;;;;;5.90;2.20;;;13.10;99.90;;;;;;5082083;28;20205;-66
2023/07/26 03:00:24;;;;;;;2.13;1.87;;;13.00;99.90;;;;;;5078134;28;20293;-67
2023/07/26 03:02:50;;;;;;;3.33;2.30;;;13.10;99.90;;;;;;5075350;28;20213;-66
2023/07/26 03:05:15;;;;;;;3.63;2.30;;;13.10;99.90;;;;;;5078880;28;20174;-66
2023/07/26 03:07:41;;;;;;;3.17;2.97;;;13.00;99.90;;;;;;5069429;28;20213;-67
2023/07/26 03:10:07;;;;;;;5.27;2.30;;;13.00;99.90;;;;;;5074609;28;20190;-67
2023/07/26 03:12:32;;;;;;;2.50;2.30;;;13.00;99.90;;;;;;5062232;28;20643;-66
2023/07/26 03:14:58;;;;;;;2.50;2.30;;;12.90;99.90;;;;;;5074823;28;20507;-66
2023/07/26 03:17:23;;;;;;;7.50;2.20;;;12.90;99.90;;;;;;5080396;28;20204;-67
2023/07/26 03:19:50;;;;;;;2.73;2.03;;;12.90;99.90;;;;;;5071737;28;20245;-66
2023/07/26 03:22:16;;;;;;;2.07;1.87;;;12.90;99.90;;;;;;5079844;28;20266;-66
2023/07/26 03:24:41;;;;;;;9.90;2.27;;;12.80;99.90;;;;;;5081097;28;20413;-66
2023/07/26 03:27:08;;;;;;;2.50;2.30;;;12.80;99.90;;;;;;5062250;28;20696;-66
2023/07/26 03:29:33;;;;;;;7.30;2.43;;;12.80;99.90;;;;;;5081090;28;20255;-66
2023/07/26 03:31:59;;;;;;;2.10;1.90;;;12.70;99.90;;;;;;5072127;28;20424;-67
2023/07/26 03:34:24;;;;;;;3.50;2.27;;;12.70;99.90;;;;;;5078741;28;20257;-66
2023/07/26 03:36:50;;;;;;;3.77;1.90;;;12.80;99.90;;;;;;5060696;28;20190;-66
2023/07/26 03:39:16;;;;;;;3.20;2.20;;;12.80;99.90;;;;;;5065547;28;20174;-67
2023/07/26 03:41:41;;;;;;;3.50;2.17;;;12.80;99.90;;;;;;5069214;28;20194;-66
2023/07/26 03:44:07;;;;;;;6.90;2.20;;;12.80;99.90;;;;;;5072519;28;20174;-66
2023/07/26 03:46:32;;;;;;;2.93;1.63;;;12.80;99.90;;;;;;5067606;28;20206;-66
2023/07/26 03:48:58;;;;;;;3.70;2.30;;;12.80;99.90;;;;;;5071416;28;20179;-66
2023/07/26 03:51:24;;;;;;;7.30;2.07;;;12.80;99.90;;;;;;5064893;28;20288;-67
2023/07/26 03:53:49;;;;;;;3.87;2.30;;;12.80;99.90;;;;;;5070107;28;20245;-66
2023/07/26 03:56:15;;;;;;;4.83;2.83;;;12.90;99.90;;;;;;5079791;28;20510;-66
2023/07/26 03:58:40;;;;;;;3.73;2.60;;;12.90;99.90;;;;;;5079892;28;20241;-66
2023/07/26 04:01:06;;;;;;;3.03;1.93;;;13.00;99.90;;;;;;5069645;28;20190;-66
2023/07/26 04:03:31;;;;;;;3.50;2.23;;;13.00;99.90;;;;;;5083418;28;20185;-66
2023/07/26 04:05:57;;;;;;;5.13;2.70;;;13.10;99.90;;;;;;5078102;28;20633;-66
2023/07/26 04:08:23;;;;;;;5.20;2.30;;;13.10;99.90;;;;;;5077510;28;20299;-65
2023/07/26 04:10:48;;;;;;;5.20;2.37;;;13.10;99.90;;;;;;5069686;28;20585;-66
2023/07/26 04:13:14;;;;;;;6.60;2.70;;;13.10;99.90;;;;;;5076403;28;20175;-66
2023/07/26 04:15:39;;;;;;;5.60;2.40;;;13.10;99.90;;;;;;5072361;28;20221;-66
2023/07/26 04:18:05;;;;;;;7.30;2.40;;;13.10;99.90;;;;;;5073038;28;20170;-67
2023/07/26 04:20:30;;;;;;;3.50;1.97;;;13.10;99.90;;;;;;5063916;28;20210;-68
2023/07/26 04:22:56;;;;;;;2.77;2.10;;;13.10;99.90;;;;;;5059199;28;20225;-66
2023/07/26 04:25:22;;;;;;;2.67;2.10;;;13.10;99.90;;;;;;5065324;28;20171;-66
2023/07/26 04:27:47;;;;;;;5.77;2.43;;;13.20;99.90;;;;;;5058861;28;20518;-65
2023/07/26 04:30:13;;;;;;;11.77;2.90;;;13.30;99.90;;;;;;5074754;28;20198;-65
2023/07/26 04:32:38;;;;;;;3.37;2.00;;;13.40;99.90;;;;;;5066176;28;20181;-66
2023/07/26 04:35:04;;;;;;;3.87;2.30;;;13.40;99.90;;;;;;5059641;28;20300;-66
2023/07/26 04:37:30;;;;;;;4.07;2.43;;;13.50;99.90;;;;;;5083324;28;20184;-67
2023/07/26 04:39:56;;;;;;;8.77;2.97;;;13.60;99.90;;;;;;5077736;28;20754;-66
2023/07/26 04:42:21;;;;;;;3.47;2.37;;;13.70;99.90;;;;;;5061451;28;20491;-65
2023/07/26 04:44:47;;;;;;;6.90;2.83;;;13.80;99.90;;;;;;5067424;28;20553;-65
2023/07/26 04:47:15;;;;;;;6.50;2.47;;;13.90;99.90;;;;;;5060010;28;20170;-66
2023/07/26 04:49:41;;;;;;;8.40;2.10;;;14.00;99.90;;;;;;5065612;28;20698;-66
2023/07/26 04:52:07;;;;;;;8.80;2.60;;;14.10;99.90;;;;;;5068596;28;20424;-66
2023/07/26 04:54:32;;;;;;;6.97;2.50;;;14.20;99.90;;;;;;5069174;28;20416;-66
2023/07/26 04:56:58;;;;;;;3.10;2.20;;;14.30;99.90;;;;;;5086059;28;20948;-66
2023/07/26 04:59:24;;;;;;;6.27;2.10;;;14.40;99.90;;;;;;5050949;28;20191;-66
2023/07/26 05:01:52;;;;;;;7.50;2.67;;;14.30;99.90;;;;;;5077614;28;20454;-66
2023/07/26 05:04:18;;;;;;;4.40;2.63;;;14.30;99.90;;;;;;5072632;28;20605;-66
2023/07/26 05:06:43;;;;;;;7.57;3.20;;;14.60;99.90;;;;;;5075125;28;20495;-66
2023/07/26 05:09:09;;;;;;;2.93;2.40;;;14.40;99.90;;;;;;5079862;28;20173;-66
2023/07/26 05:11:35;;;;;;;5.50;2.03;;;14.40;99.90;;;;;;5070004;28;20167;-66
2023/07/26 05:14:00;;;;;;;6.17;1.93;;;14.70;99.90;;;;;;5071832;28;20596;-66
2023/07/26 05:16:26;;;;;;;3.10;1.60;;;14.40;99.90;;;;;;5064329;28;20240;-66
2023/07/26 05:18:53;;;;;;;7.70;2.30;;;14.50;99.90;;;;;;5072963;28;20530;-66
2023/07/26 05:21:18;;;;;;;3.73;2.30;;;14.50;99.90;;;;;;5073479;28;20722;-66
2023/07/26 05:23:44;;;;;;;2.93;1.80;;;14.60;99.90;;;;;;5068552;28;20495;-66
2023/07/26 05:26:09;;;;;;;3.77;2.30;;;14.60;99.90;;;;;;5080422;28;20174;-66
2023/07/26 05:28:35;;;;;;;4.47;3.27;;;14.90;99.90;;;;;;5066673;28;20179;-66
2023/07/26 05:31:01;;;;;;;5.87;2.50;;;14.80;99.90;;;;;;5079099;28;20233;-66
2023/07/26 05:33:26;;;;;;;7.20;2.07;;;15.00;99.90;;;;;;5068103;28;20275;-66
2023/07/26 05:35:52;;;;;;;7.27;2.30;;;15.30;99.90;;;;;;5072080;28;20195;-66
2023/07/26 05:38:18;;;;;;;6.90;3.53;;;15.30;99.90;;;;;;5072001;28;20600;-66
2023/07/26 05:40:43;;;;;;;5.53;2.27;;;15.20;99.90;;;;;;5070683;28;20582;-66
2023/07/26 05:43:09;;;;;;;3.80;2.10;;;15.70;99.90;;;;;;5061603;28;20335;-66
2023/07/26 05:45:34;;;;;;;2.27;1.93;;;16.20;99.90;;;;;;5065805;28;20212;-67
2023/07/26 05:48:00;;;;;;;3.13;1.90;;;15.80;99.90;;;;;;5071708;28;20174;-70
2023/07/26 05:50:26;;;;;;;3.00;2.43;;;16.20;99.90;;;;;;5061085;28;20199;-67
2023/07/26 05:52:51;;;;;;;5.20;2.17;;;16.90;99.90;;;;;;5070854;28;20182;-65
2023/07/26 05:55:17;;;;;;;3.63;2.07;;;17.00;99.90;;;;;;5071456;28;20664;-66
2023/07/26 05:57:42;;;;;;;4.80;1.87;;;16.20;99.90;;;;;;5073188;28;20175;-66
2023/07/26 06:00:10;;;;;;;3.63;1.90;;;16.20;99.90;;;;;;5069889;28;20199;-66
2023/07/26 06:02:36;;;;;;;2.67;2.37;;;16.60;99.90;;;;;;5062619;28;20219;-66
2023/07/26 06:05:01;;;;;;;3.30;2.23;;;16.40;99.90;;;;;;5066788;28;20425;-67
2023/07/26 06:07:28;;;;;;;4.23;3.43;;;16.80;99.90;;;;;;5083041;28;20187;-66
2023/07/26 06:09:54;;;;;;;5.77;2.83;;;17.10;99.90;;;;;;5078859;28;20503;-66
2023/07/26 06:12:19;;;;;;;3.33;1.77;;;18.00;99.90;;;;;;5071496;28;20176;-71
2023/07/26 06:14:45;;;;;;;5.43;1.93;;;18.20;99.90;;;;;;5076148;28;20180;-65
2023/07/26 06:17:12;;;;;;;2.73;1.60;;;17.70;99.90;;;;;;5052329;28;20220;-66
2023/07/26 06:19:37;;;;;;;3.30;1.53;;;18.00;99.90;;;;;;5069839;28;20213;-66
2023/07/26 06:22:03;;;;;;;6.33;2.10;;;18.00;99.90;;;;;;5067689;28;20445;-66
2023/07/26 06:24:29;;;;;;;2.40;1.50;;;18.40;99.90;;;;;;5063335;28;20165;-65
2023/07/26 06:26:55;;;;;;;5.67;1.90;;;18.20;99.90;;;;;;5061484;28;20239;-66
2023/07/26 06:29:20;;;;;;;3.23;1.67;;;18.30;99.90;;;;;;5067564;28;20538;-65
2023/07/26 06:31:47;;;;;;;5.23;1.70;;;18.20;99.90;;;;;;5076608;28;20188;-66
2023/07/26 06:34:12;;;;;;;6.40;1.83;;;18.90;99.90;;;;;;5064006;28;20185;-66
2023/07/26 06:36:38;;;;;;;2.00;1.30;;;19.80;99.90;;;;;;5039856;28;20426;-67
2023/07/26 06:39:04;;;;;;;3.33;1.53;;;19.00;99.90;;;;;;5062486;28;20176;-64
2023/07/26 06:41:29;;;;;;;3.03;1.87;;;18.20;99.90;;;;;;5064944;28;20173;-66
2023/07/26 06:43:55;;;;;;;5.50;1.70;;;18.40;99.90;;;;;;5064376;28;20527;-67
2023/07/26 06:46:21;;;;;;;4.80;2.10;;;18.70;99.90;;;;;;5069021;28;20406;-66
2023/07/26 06:48:47;;;;;;;4.83;1.60;;;19.10;99.90;;;;;;5056366;28;20245;-67
2023/07/26 06:51:12;;;;;;;4.63;1.80;;;20.40;99.90;;;;;;5061601;28;20223;-67
2023/07/26 06:53:38;;;;;;;2.43;1.30;;;21.00;99.90;;;;;;5063594;28;20173;-65
2023/07/26 06:56:04;;;;;;;3.57;1.23;;;21.20;99.90;;;;;;5064332;28;20177;-66
2023/07/26 06:58:29;;;;;;;5.70;1.70;;;20.90;99.90;;;;;;5060063;28;20208;-66
2023/07/26 07:00:55;;;;;;;5.87;1.43;;;21.10;99.90;;;;;;5061189;28;20679;-66
2023/07/26 07:03:21;;;;;;;3.33;1.30;;;22.10;99.90;;;;;;5046393;28;20281;-66
2023/07/26 07:05:47;;;;;;;3.67;1.90;;;22.20;99.90;;;;;;5059963;28;20243;-67
2023/07/26 07:08:13;;;;;;;2.57;1.37;;;21.90;99.90;;;;;;5062980;28;20231;-66
2023/07/26 07:10:38;;;;;;;2.30;1.27;;;22.40;99.90;;;;;;5069316;28;20524;-68
2023/07/26 07:13:04;;;;;;;3.97;1.50;;;21.60;99.90;;;;;;5070708;28;20192;-66
2023/07/26 07:15:30;;;;;;;2.03;1.33;;;22.40;99.90;;;;;;5060123;28;20175;-65
2023/07/26 07:17:56;;;;;;;2.33;1.30;;;22.10;99.90;;;;;;5051808;28;20178;-66
2023/07/26 07:20:21;;;;;;;6.00;1.80;;;22.50;99.90;;;;;;5058950;28;20300;-66
2023/07/26 07:22:51;;;;;;;3.27;1.40;;;22.90;99.90;;;;;;5047571;28;20204;-70
2023/07/26 07:25:16;;;;;;;2.13;1.40;;;21.70;99.90;;;;;;5072362;28;20178;-68
2023/07/26 07:27:42;;;;;;;2.33;1.40;;;21.70;99.90;;;;;;5072935;28;20432;-66
2023/07/26 07:30:10;;;;;;;3.13;1.90;;;21.90;99.90;;;;;;5046567;28;20204;-69
2023/07/26 07:32:38;;;;;;;2.43;1.60;;;21.60;99.90;;;;;;5064995;28;20227;-67
2023/07/26 07:35:06;;;;;;;5.17;1.77;;;21.10;99.90;;;;;;5066479;28;20448;-67
2023/07/26 07:37:31;;;;;;;2.00;1.33;;;21.20;99.90;;;;;;5070145;28;20431;-66
2023/07/26 07:39:57;;;;;;;2.93;1.60;;;21.60;99.90;;;;;;5073400;28;20453;-67
2023/07/26 07:42:22;;;;;;;2.33;1.30;;;21.80;99.90;;;;;;5064451;28;20200;-68
2023/07/26 07:44:48;;;;;;;4.53;1.40;;;22.10;99.90;;;;;;5074785;28;20183;-65
2023/07/26 07:47:14;;;;;;;5.80;4.63;;;20.60;99.90;;;;;;5071382;28;20253;-66
2023/07/26 07:49:39;;;;;;;2.40;1.93;;;21.30;99.90;;;;;;5066839;28;20293;-66
2023/07/26 07:52:05;;;;;;;14.97;13.17;;;21.30;99.90;;;;;;5070170;28;20275;-66
2023/07/26 07:54:31;;;;;;;6.37;2.87;;;22.10;99.90;;;;;;5083856;28;20514;-66
2023/07/26 07:56:56;;;;;;;5.20;1.97;;;21.50;99.90;;;;;;5077707;28;20543;-65
2023/07/26 07:59:22;;;;;;;3.47;2.70;;;21.60;99.90;;;;;;5071532;28;20223;-65
2023/07/26 08:01:47;;;;;;;1.53;1.43;;;21.20;99.90;;;;;;5078416;28;20193;-65
2023/07/26 08:04:13;;;;;;;2.57;1.70;;;21.80;99.90;;;;;;5066237;28;20193;-67
2023/07/26 08:06:39;;;;;;;2.50;1.87;;;21.50;99.90;;;;;;5072656;28;20179;-67
2023/07/26 08:09:05;;;;;;;7.40;4.40;;;20.70;99.90;;;;;;5075217;28;20181;-68
2023/07/26 08:11:30;;;;;;;1.63;1.37;;;20.70;99.90;;;;;;5065308;28;20631;-65
2023/07/26 08:13:56;;;;;;;1.53;1.27;;;20.70;99.90;;;;;;5072250;28;20406;-66
2023/07/26 08:16:22;;;;;;;2.10;1.90;;;20.80;99.90;;;;;;5034405;28;20297;-66
2023/07/26 08:18:47;;;;;;;2.00;1.60;;;21.30;99.90;;;;;;5069890;28;20295;-66
2023/07/26 08:21:13;;;;;;;2.03;1.50;;;21.30;99.90;;;;;;5063857;28;20584;-66
2023/07/26 08:23:44;;;;;;;3.37;1.30;;;21.70;99.90;;;;;;5067371;28;20266;-65
2023/07/26 08:26:13;;;;;;;3.10;2.10;;;21.60;99.90;;;;;;5033982;28;20570;-65
2023/07/26 08:28:38;;;;;;;3.23;2.00;;;22.00;99.90;;;;;;5039419;28;20435;-65
2023/07/26 08:31:04;;;;;;;2.93;1.27;;;21.90;99.90;;;;;;5060100;28;20808;-65
2023/07/26 08:33:29;;;;;;;3.80;1.73;;;22.40;99.90;;;;;;5060406;28;20311;-65
2023/07/26 08:35:55;;;;;;;1.73;1.33;;;22.40;99.90;;;;;;5062063;28;20645;-65
2023/07/26 08:38:22;;;;;;;2.90;1.63;;;23.20;99.90;;;;;;5052611;28;20187;-65
2023/07/26 08:40:49;;;;;;;1.77;1.30;;;23.30;99.90;;;;;;5063323;28;20198;-65
2023/07/26 08:43:19;;;;;;;1.53;1.20;;;22.70;99.90;;;;;;5057050;28;20471;-65
2023/07/26 08:45:45;;;;;;;1.60;1.47;;;23.20;99.90;;;;;;5045154;28;20441;-65
2023/07/26 08:48:11;;;;;;;2.30;1.43;;;23.80;99.90;;;;;;5061585;28;20440;-65
2023/07/26 08:50:41;;;;;;;2.40;2.20;;;23.80;99.90;;;;;;5067513;28;20476;-65
2023/07/26 08:53:07;;;;;;;2.80;1.33;;;22.70;99.90;;;;;;5069793;28;20431;-65
2023/07/26 08:55:34;;;;;;;2.00;1.40;;;21.90;99.90;;;;;;5064235;28;20417;-65
2023/07/26 08:58:00;;;;;;;2.60;1.43;;;22.70;99.90;;;;;;5073353;28;20503;-66
2023/07/26 09:00:29;;;;;;;1.93;1.47;;;23.00;99.90;;;;;;5063454;28;20531;-65
2023/07/26 09:02:57;;;;;;;1.97;1.30;;;23.40;99.90;;;;;;5075100;28;20455;-66
2023/07/26 09:05:23;;;;;;;2.83;1.87;;;23.10;99.90;;;;;;5072317;28;20423;-65
2023/07/26 09:07:51;;;;;;;1.83;1.50;;;23.40;99.90;;;;;;5061348;28;20986;-64
2023/07/26 09:10:29;;;;;;;3.17;1.60;;;22.80;99.90;;;;;;5081129;28;20197;-64
2023/07/26 09:13:07;;;;;;;2.13;1.87;;;22.70;99.90;;;;;;5064429;28;20448;-66
2023/07/26 09:15:40;;;;;;;2.10;1.50;;;23.10;99.90;;;;;;5066067;28;20408;-65
2023/07/26 09:18:06;;;;;;;2.50;1.30;;;25.10;99.90;;;;;;5058436;28;20497;-65
2023/07/26 09:20:33;;;;;;;1.57;1.40;;;26.00;99.30;;;;;;5074321;28;20978;-66
2023/07/26 09:23:06;;;;;;;2.90;1.53;;;24.80;99.90;;;;;;5057927;28;20821;-66
2023/07/26 09:25:31;;;;;;;2.47;1.50;;;22.90;99.90;;;;;;5069987;28;20410;-66
2023/07/26 09:28:01;;;;;;;2.73;1.37;;;23.50;99.90;;;;;;5066771;28;20413;-66
2023/07/26 09:30:27;;;;;;;4.30;1.80;;;23.20;99.90;;;;;;5068206;28;20189;-66
2023/07/26 09:32:56;;;;;;;2.60;1.80;;;23.80;99.90;;;;;;5056268;28;20425;-67
2023/07/26 09:35:22;;;;;;;3.73;1.83;;;22.30;99.90;;;;;;5060461;28;20511;-67
2023/07/26 09:37:48;;;;;;;3.47;1.80;;;21.40;99.90;;;;;;5082083;28;20770;-66
2023/07/26 09:40:13;;;;;;;1.70;1.60;;;21.70;99.90;;;;;;5072323;28;20763;-67
2023/07/26 09:42:44;;;;;;;4.20;1.13;;;21.30;99.90;;;;;;5069839;28;20200;-68
2023/07/26 09:45:17;;;;;;;1.50;1.30;;;22.50;99.90;;;;;;5065042;28;20170;-66
2023/07/26 09:47:43;;;;;;;2.20;1.67;;;22.80;99.90;;;;;;5075382;28;20415;-67
2023/07/26 09:50:26;;;;;;;2.30;1.53;;;22.00;99.90;;;;;;5063143;28;20950;-67
2023/07/26 09:52:56;;;;;;;2.17;1.60;;;21.70;99.90;;;;;;5066040;28;20183;-68
2023/07/26 09:55:24;;;;;;;2.50;1.53;;;21.20;99.90;;;;;;5072164;28;20410;-67
2023/07/26 09:57:55;;;;;;;1.80;1.30;;;21.70;99.90;;;;;;5066836;28;20407;-67
2023/07/26 10:00:26;;;;;;;2.53;1.40;;;22.40;99.90;;;;;;5059801;28;20774;-67
2023/07/26 10:03:03;;;;;;;2.20;1.33;;;22.90;99.90;;;;;;5059472;28;20468;-66
2023/07/26 10:05:35;;;;;;;1.93;1.50;;;23.40;99.90;;;;;;5071539;28;20411;-68
2023/07/26 10:08:01;;;;;;;1.80;1.00;;;22.60;99.90;;;;;;5059653;28;20403;-67
2023/07/26 10:10:28;;;;;;;2.03;1.30;;;22.50;99.90;;;;;;5065646;28;20425;-67
2023/07/26 10:12:57;;;;;;;4.20;1.47;;;22.50;99.90;;;;;;5071687;28;20425;-68
2023/07/26 10:15:26;;;;;;;2.90;1.40;;;22.10;99.90;;;;;;5061743;28;20830;-68
2023/07/26 10:17:52;;;;;;;2.60;1.57;;;22.00;99.90;;;;;;5060061;28;20418;-70
2023/07/26 10:20:18;;;;;;;3.80;1.60;;;22.30;99.90;;;;;;5061861;28;20972;-67
2023/07/26 10:22:47;;;;;;;1.73;1.47;;;21.90;99.90;;;;;;5065072;28;20871;-68
2023/07/26 10:25:12;;;;;;;2.03;1.50;;;21.80;99.90;;;;;;5061391;28;20413;-69
2023/07/26 10:27:39;;;;;;;3.27;1.83;;;21.90;99.90;;;;;;5072177;28;20987;-68
2023/07/26 10:30:06;;;;;;;2.97;1.50;;;22.20;99.90;;;;;;5062460;28;20538;-68
2023/07/26 10:32:32;;;;;;;2.10;1.50;;;22.00;99.90;;;;;;5080121;28;20419;-67
2023/07/26 10:34:59;;;;;;;3.03;1.70;;;22.20;99.90;;;;;;5064992;28;20423;-67
2023/07/26 10:37:33;;;;;;;2.70;2.00;;;22.10;99.90;;;;;;5069138;28;20188;-69
2023/07/26 10:39:59;;;;;;;1.93;1.40;;;22.80;99.90;;;;;;5073776;28;20436;-68
2023/07/26 10:42:26;;;;;;;2.70;1.20;;;22.20;99.90;;;;;;5075539;28;20446;-68
2023/07/26 10:45:03;;;;;;;2.60;1.73;;;22.00;99.90;;;;;;5078226;28;20416;-67
2023/07/26 10:47:29;;;;;;;3.10;2.10;;;22.50;99.90;;;;;;5068745;28;20936;-67
2023/07/26 10:50:03;;;;;;;2.63;1.80;;;22.70;99.90;;;;;;5071537;28;20466;-67
2023/07/26 10:52:41;;;;;;;3.03;1.63;;;23.30;99.90;;;;;;5047210;28;20815;-67
2023/07/26 10:55:27;;;;;;;2.10;1.57;;;23.10;99.90;;;;;;5075304;28;20414;-67
2023/07/26 10:57:52;;;;;;;2.57;1.57;;;22.50;99.90;;;;;;5066612;28;20924;-67
2023/07/26 11:00:31;;;;;;;1.20;1.10;;;21.60;99.90;;;;;;5067532;28;20429;-66
2023/07/26 11:03:01;;;;;;;2.23;1.40;;;22.20;99.60;;;;;;5073778;28;20642;-66
2023/07/26 11:05:29;;;;;;;3.60;1.70;;;22.30;99.20;;;;;;5067915;28;20455;-66
2023/07/26 11:08:02;;;;;;;2.70;1.93;;;22.30;99.90;;;;;;5072164;28;20423;-67
2023/07/26 11:10:32;;;;;;;3.47;1.57;;;21.80;99.90;;;;;;5060221;28;20437;-67
2023/07/26 11:13:12;;;;;;;2.23;1.70;;;21.50;99.90;;;;;;5067268;28;20469;-67
2023/07/26 11:15:43;;;;;;;2.37;1.77;;;21.20;99.90;;;;;;5060395;28;20418;-66
2023/07/26 11:18:10;;;;;;;2.10;1.60;;;21.40;99.90;;;;;;5063802;28;20496;-67
2023/07/26 11:20:55;;;;;;;4.07;1.60;;;21.40;99.90;;;;;;5079068;28;20464;-67
2023/07/26 11:23:26;;;;;;;4.73;1.80;;;21.30;99.90;;;;;;5067798;28;20496;-67
2023/07/26 11:25:59;;;;;;;3.10;2.30;;;21.80;99.90;;;;;;5072121;28;20433;-66
2023/07/26 11:28:33;;;;;;;5.03;3.97;;;21.50;99.90;;;;;;5051206;28;20428;-65
2023/07/26 11:30:59;;;;;;;3.07;2.73;;;21.20;99.90;;;;;;5079881;28;20438;-65
2023/07/26 11:33:32;;;;;;;2.03;1.47;;;21.20;99.90;;;;;;5066656;28;20771;-66
2023/07/26 11:35:59;;;;;;;2.03;1.73;;;20.90;99.90;;;;;;5072842;28;20584;-67
2023/07/26 11:38:27;;;;;;;2.97;1.43;;;20.90;99.90;;;;;;5069141;28;20407;-67
2023/07/26 11:40:58;;;;;;;3.57;2.30;;;20.90;99.90;;;;;;5074320;28;20956;-65
2023/07/26 11:43:25;;;;;;;2.50;1.83;;;20.90;99.90;;;;;;5078103;28;20449;-68
2023/07/26 11:45:52;;;;;;;4.83;1.90;;;20.80;99.90;;;;;;5076796;28;20465;-66
2023/07/26 11:48:18;;;;;;;2.77;1.50;;;20.70;99.90;;;;;;5071326;28;20833;-67
2023/07/26 11:50:44;;;;;;;1.60;1.30;;;20.90;99.90;;;;;;5045249;28;20461;-68
2023/07/26 11:53:12;;;;;;;5.13;1.67;;;21.10;99.90;;;;;;5040566;28;20444;-67
2023/07/26 11:55:40;;;;;;;6.10;2.00;;;21.30;99.90;;;;;;5074577;28;20186;-66
2023/07/26 11:58:08;;;;;;;3.67;2.10;;;21.60;99.90;;;;;;5066724;28;20411;-66
2023/07/26 12:00:36;;;;;;;4.70;1.60;;;21.50;99.90;;;;;;5063941;28;20532;-67
2023/07/26 12:03:02;;;;;;;2.40;1.70;;;21.40;99.90;;;;;;5051830;28;20813;-66
2023/07/26 12:05:28;;;;;;;4.60;2.37;;;21.00;99.90;;;;;;5081247;28;20414;-65
2023/07/26 12:08:08;;;;;;;2.70;1.70;;;20.60;99.90;;;;;;5078332;28;20410;-67
2023/07/26 12:10:38;;;;;;;1.87;1.77;;;20.60;99.90;;;;;;5047747;28;20450;-66
2023/07/26 12:13:18;;;;;;;2.00;1.80;;;20.50;99.90;;;;;;5064547;28;20486;-67
2023/07/26 12:16:00;;;;;;;2.90;1.50;;;20.30;99.90;;;;;;5063412;28;20792;-65
2023/07/26 12:18:26;;;;;;;3.50;1.73;;;20.50;99.90;;;;;;5061902;28;20419;-66
2023/07/26 12:21:03;;;;;;;3.43;1.80;;;20.60;99.90;;;;;;5038109;28;20481;-66
2023/07/26 12:23:51;;;;;;;1.90;1.63;;;20.70;99.90;;;;;;5049779;28;20449;-66
2023/07/26 12:26:21;;;;;;;2.00;1.37;;;20.70;99.90;;;;;;5070621;28;20404;-66
2023/07/26 12:28:47;;;;;;;3.13;2.73;;;21.70;99.90;;;;;;5063154;28;20906;-66
2023/07/26 12:31:21;;;;;;;2.40;1.60;;;22.00;99.90;;;;;;5073724;28;20433;-67
2023/07/26 12:33:58;;;;;;;3.83;1.83;;;22.30;99.90;;;;;;5074280;28;20421;-67
2023/07/26 12:36:26;;;;;;;3.53;2.00;;;22.50;99.90;;;;;;5061827;28;20417;-66
2023/07/26 12:38:52;;;;;;;2.03;1.80;;;22.40;99.90;;;;;;5054836;28;20416;-67
2023/07/26 12:41:18;;;;;;;1.67;1.40;;;22.40;99.90;;;;;;5047227;28;20429;-67
2023/07/26 12:43:51;;;;;;;3.00;1.80;;;22.10;99.90;;;;;;5048488;28;20464;-66
2023/07/26 12:46:17;;;;;;;3.10;1.60;;;21.90;99.90;;;;;;5062579;28;20443;-65